sensor_id;sensor_type;location;lat;lon;timestamp;pressure;altitude;pressure_sealevel;temperature;humidity
42385;BME280;28042;43.986;22.860;2023-02-16T00:00:21;102682.19;;;1.65;100.00
42385;BME280;28042;43.986;22.860;2023-02-16T00:02:48;102669.75;;;1.63;100.00
42385;BME280;28042;43.986;22.860;2023-02-16T00:07:48;102680.81;;;1.58;100.00
42385;BME280;28042;43.986;22.860;2023-02-16T00:10:13;102685.34;;;1.58;100.00
42385;BME280;28042;43.986;22.860;2023-02-16T00:12:38;102680.97;;;1.55;100.00
42385;BME280;28042;43.986;22.860;2023-02-16T00:15:22;102680.22;;;1.53;100.00
42385;BME280;28042;43.986;22.860;2023-02-16T00:17:47;102672.34;;;1.50;100.00
42385;BME280;28042;43.986;22.860;2023-02-16T00:20:13;102678.72;;;1.48;100.00
42385;BME280;28042;43.986;22.860;2023-02-16T00:22:39;102675.47;;;1.42;100.00
42385;BME280;28042;43.986;22.860;2023-02-16T00:25:04;102673.03;;;1.38;100.00
42385;BME280;28042;43.986;22.860;2023-02-16T00:27:30;102677.53;;;1.37;100.00
42385;BME280;28042;43.986;22.860;2023-02-16T00:29:55;102674.94;;;1.36;100.00
42385;BME280;28042;43.986;22.860;2023-02-16T00:32:21;102672.25;;;1.36;100.00
42385;BME280;28042;43.986;22.860;2023-02-16T00:34:46;102681.28;;;1.35;100.00
42385;BME280;28042;43.986;22.860;2023-02-16T00:37:12;102674.94;;;1.36;100.00
42385;BME280;28042;43.986;22.860;2023-02-16T00:39:38;102674.84;;;1.37;100.00
42385;BME280;28042;43.986;22.860;2023-02-16T00:42:04;102682.06;;;1.37;100.00
42385;BME280;28042;43.986;22.860;2023-02-16T00:46:57;102676.00;;;1.33;100.00
42385;BME280;28042;43.986;22.860;2023-02-16T00:49:23;102668.03;;;1.32;100.00
42385;BME280;28042;43.986;22.860;2023-02-16T00:51:48;102672.72;;;1.28;100.00
42385;BME280;28042;43.986;22.860;2023-02-16T00:54:14;102674.63;;;1.26;100.00
42385;BME280;28042;43.986;22.860;2023-02-16T00:56:40;102674.28;;;1.17;100.00
42385;BME280;28042;43.986;22.860;2023-02-16T00:59:06;102668.25;;;1.13;100.00
42385;BME280;28042;43.986;22.860;2023-02-16T01:01:33;102675.69;;;1.08;100.00
42385;BME280;28042;43.986;22.860;2023-02-16T01:03:58;102677.75;;;1.03;100.00
42385;BME280;28042;43.986;22.860;2023-02-16T01:06:26;102671.78;;;0.98;100.00
42385;BME280;28042;43.986;22.860;2023-02-16T01:09:12;102671.38;;;0.90;100.00
42385;BME280;28042;43.986;22.860;2023-02-16T01:11:56;102672.66;;;0.82;100.00
42385;BME280;28042;43.986;22.860;2023-02-16T01:14:22;102677.06;;;0.83;100.00
42385;BME280;28042;43.986;22.860;2023-02-16T01:16:47;102671.25;;;0.75;100.00
42385;BME280;28042;43.986;22.860;2023-02-16T01:19:12;102672.41;;;0.71;100.00
42385;BME280;28042;43.986;22.860;2023-02-16T01:21:38;102660.06;;;0.67;100.00
42385;BME280;28042;43.986;22.860;2023-02-16T01:24:03;102665.44;;;0.67;100.00
42385;BME280;28042;43.986;22.860;2023-02-16T01:26:28;102663.03;;;0.63;100.00
42385;BME280;28042;43.986;22.860;2023-02-16T01:28:54;102662.69;;;0.53;100.00
42385;BME280;28042;43.986;22.860;2023-02-16T01:31:19;102670.75;;;0.53;100.00
42385;BME280;28042;43.986;22.860;2023-02-16T01:33:44;102663.59;;;0.52;100.00
42385;BME280;28042;43.986;22.860;2023-02-16T01:36:32;102663.28;;;0.58;100.00
42385;BME280;28042;43.986;22.860;2023-02-16T01:38:55;102663.53;;;0.69;100.00
42385;BME280;28042;43.986;22.860;2023-02-16T01:43:57;102664.16;;;0.74;100.00
42385;BME280;28042;43.986;22.860;2023-02-16T01:46:38;102662.44;;;0.73;100.00
42385;BME280;28042;43.986;22.860;2023-02-16T01:49:04;102656.53;;;0.82;100.00
42385;BME280;28042;43.986;22.860;2023-02-16T01:51:34;102660.63;;;0.90;100.00
42385;BME280;28042;43.986;22.860;2023-02-16T01:56:49;102661.47;;;0.90;100.00
42385;BME280;28042;43.986;22.860;2023-02-16T02:01:57;102664.41;;;0.85;100.00
42385;BME280;28042;43.986;22.860;2023-02-16T02:07:13;102666.94;;;0.89;100.00
42385;BME280;28042;43.986;22.860;2023-02-16T02:09:42;102664.41;;;0.85;100.00
42385;BME280;28042;43.986;22.860;2023-02-16T02:12:27;102667.72;;;0.75;100.00
42385;BME280;28042;43.986;22.860;2023-02-16T02:14:56;102657.75;;;0.61;100.00
42385;BME280;28042;43.986;22.860;2023-02-16T02:17:21;102672.19;;;0.59;100.00
42385;BME280;28042;43.986;22.860;2023-02-16T02:30:34;102662.44;;;0.24;100.00
42385;BME280;28042;43.986;22.860;2023-02-16T02:48:09;102659.34;;;-0.18;100.00
42385;BME280;28042;43.986;22.860;2023-02-16T02:50:39;102657.88;;;-0.24;100.00
42385;BME280;28042;43.986;22.860;2023-02-16T02:53:09;102657.94;;;-0.25;100.00
42385;BME280;28042;43.986;22.860;2023-02-16T02:55:37;102659.13;;;-0.31;100.00
42385;BME280;28042;43.986;22.860;2023-02-16T02:58:24;102658.44;;;-0.35;100.00
42385;BME280;28042;43.986;22.860;2023-02-16T03:01:08;102653.28;;;-0.57;100.00
42385;BME280;28042;43.986;22.860;2023-02-16T03:03:38;102658.56;;;-0.55;100.00
42385;BME280;28042;43.986;22.860;2023-02-16T03:06:07;102660.22;;;-0.52;100.00
42385;BME280;28042;43.986;22.860;2023-02-16T03:08:34;102663.84;;;-0.53;100.00
42385;BME280;28042;43.986;22.860;2023-02-16T03:11:10;102655.97;;;-0.57;100.00
42385;BME280;28042;43.986;22.860;2023-02-16T03:14:05;102654.63;;;-0.65;100.00
42385;BME280;28042;43.986;22.860;2023-02-16T03:16:33;102653.06;;;-0.69;100.00
42385;BME280;28042;43.986;22.860;2023-02-16T03:18:59;102655.25;;;-0.77;100.00
42385;BME280;28042;43.986;22.860;2023-02-16T03:21:44;102656.03;;;-0.75;100.00
42385;BME280;28042;43.986;22.860;2023-02-16T03:24:29;102654.44;;;-0.79;100.00
42385;BME280;28042;43.986;22.860;2023-02-16T03:27:15;102657.09;;;-0.79;100.00
42385;BME280;28042;43.986;22.860;2023-02-16T03:30:01;102656.41;;;-0.83;100.00
42385;BME280;28042;43.986;22.860;2023-02-16T03:32:26;102659.16;;;-0.84;100.00
42385;BME280;28042;43.986;22.860;2023-02-16T03:34:52;102652.28;;;-0.90;100.00
42385;BME280;28042;43.986;22.860;2023-02-16T03:37:17;102652.53;;;-0.95;100.00
42385;BME280;28042;43.986;22.860;2023-02-16T03:39:42;102648.41;;;-1.02;100.00
42385;BME280;28042;43.986;22.860;2023-02-16T03:42:26;102645.72;;;-1.02;100.00
42385;BME280;28042;43.986;22.860;2023-02-16T03:44:52;102647.31;;;-0.98;100.00
42385;BME280;28042;43.986;22.860;2023-02-16T03:47:17;102645.88;;;-1.05;100.00
42385;BME280;28042;43.986;22.860;2023-02-16T03:49:43;102644.28;;;-1.09;100.00
42385;BME280;28042;43.986;22.860;2023-02-16T03:52:08;102650.44;;;-1.07;100.00
42385;BME280;28042;43.986;22.860;2023-02-16T03:54:33;102649.66;;;-1.09;100.00
42385;BME280;28042;43.986;22.860;2023-02-16T03:56:58;102658.91;;;-1.16;100.00
42385;BME280;28042;43.986;22.860;2023-02-16T03:59:24;102662.53;;;-1.17;100.00
42385;BME280;28042;43.986;22.860;2023-02-16T04:01:49;102667.03;;;-1.18;100.00
42385;BME280;28042;43.986;22.860;2023-02-16T04:04:14;102661.41;;;-1.30;100.00
42385;BME280;28042;43.986;22.860;2023-02-16T04:06:40;102667.16;;;-1.39;100.00
42385;BME280;28042;43.986;22.860;2023-02-16T04:09:05;102672.50;;;-1.39;100.00
42385;BME280;28042;43.986;22.860;2023-02-16T04:11:30;102659.88;;;-1.55;100.00
42385;BME280;28042;43.986;22.860;2023-02-16T04:14:14;102670.06;;;-1.63;100.00
42385;BME280;28042;43.986;22.860;2023-02-16T04:16:39;102665.84;;;-1.68;100.00
42385;BME280;28042;43.986;22.860;2023-02-16T04:19:05;102663.94;;;-1.65;100.00
42385;BME280;28042;43.986;22.860;2023-02-16T04:21:32;102673.69;;;-1.64;100.00
42385;BME280;28042;43.986;22.860;2023-02-16T04:23:57;102672.16;;;-1.51;100.00
42385;BME280;28042;43.986;22.860;2023-02-16T04:26:22;102676.13;;;-1.40;100.00
42385;BME280;28042;43.986;22.860;2023-02-16T04:28:47;102678.78;;;-1.39;100.00
42385;BME280;28042;43.986;22.860;2023-02-16T04:31:13;102673.09;;;-1.33;100.00
42385;BME280;28042;43.986;22.860;2023-02-16T04:33:38;102669.06;;;-1.42;100.00
42385;BME280;28042;43.986;22.860;2023-02-16T04:36:04;102675.16;;;-1.38;100.00
42385;BME280;28042;43.986;22.860;2023-02-16T04:38:29;102668.78;;;-1.35;100.00
42385;BME280;28042;43.986;22.860;2023-02-16T04:40:54;102670.50;;;-1.34;100.00
42385;BME280;28042;43.986;22.860;2023-02-16T04:43:20;102674.72;;;-1.48;100.00
42385;BME280;28042;43.986;22.860;2023-02-16T04:45:45;102677.16;;;-1.43;100.00
42385;BME280;28042;43.986;22.860;2023-02-16T04:48:10;102678.59;;;-1.55;100.00
42385;BME280;28042;43.986;22.860;2023-02-16T04:50:35;102684.22;;;-1.61;100.00
42385;BME280;28042;43.986;22.860;2023-02-16T04:53:01;102688.13;;;-1.49;100.00
42385;BME280;28042;43.986;22.860;2023-02-16T04:55:26;102688.00;;;-1.46;100.00
42385;BME280;28042;43.986;22.860;2023-02-16T04:57:51;102680.34;;;-1.54;100.00
42385;BME280;28042;43.986;22.860;2023-02-16T05:00:17;102685.53;;;-1.51;100.00
42385;BME280;28042;43.986;22.860;2023-02-16T05:02:42;102684.47;;;-1.47;100.00
42385;BME280;28042;43.986;22.860;2023-02-16T05:05:08;102683.66;;;-1.49;100.00
42385;BME280;28042;43.986;22.860;2023-02-16T05:07:33;102679.25;;;-1.50;100.00
42385;BME280;28042;43.986;22.860;2023-02-16T05:09:58;102675.78;;;-1.52;100.00
42385;BME280;28042;43.986;22.860;2023-02-16T05:12:23;102681.91;;;-1.50;100.00
42385;BME280;28042;43.986;22.860;2023-02-16T05:15:07;102678.44;;;-1.52;100.00
42385;BME280;28042;43.986;22.860;2023-02-16T05:17:33;102681.22;;;-1.53;100.00
42385;BME280;28042;43.986;22.860;2023-02-16T05:19:59;102683.97;;;-1.55;100.00
42385;BME280;28042;43.986;22.860;2023-02-16T05:22:24;102688.44;;;-1.55;100.00
42385;BME280;28042;43.986;22.860;2023-02-16T05:24:50;102690.38;;;-1.59;100.00
42385;BME280;28042;43.986;22.860;2023-02-16T05:27:17;102684.22;;;-1.61;100.00
42385;BME280;28042;43.986;22.860;2023-02-16T05:29:43;102692.34;;;-1.62;100.00
42385;BME280;28042;43.986;22.860;2023-02-16T05:32:08;102693.34;;;-1.65;100.00
42385;BME280;28042;43.986;22.860;2023-02-16T05:34:34;102699.63;;;-1.66;100.00
42385;BME280;28042;43.986;22.860;2023-02-16T05:36:59;102695.28;;;-1.68;100.00
42385;BME280;28042;43.986;22.860;2023-02-16T05:39:24;102700.69;;;-1.70;100.00
42385;BME280;28042;43.986;22.860;2023-02-16T05:41:50;102705.03;;;-1.67;100.00
42385;BME280;28042;43.986;22.860;2023-02-16T05:44:15;102697.75;;;-1.64;100.00
42385;BME280;28042;43.986;22.860;2023-02-16T05:46:40;102705.63;;;-1.61;100.00
42385;BME280;28042;43.986;22.860;2023-02-16T05:49:06;102703.81;;;-1.60;100.00
42385;BME280;28042;43.986;22.860;2023-02-16T05:51:32;102711.78;;;-1.59;100.00
42385;BME280;28042;43.986;22.860;2023-02-16T05:53:57;102716.78;;;-1.51;100.00
42385;BME280;28042;43.986;22.860;2023-02-16T05:56:23;102719.25;;;-1.47;100.00
42385;BME280;28042;43.986;22.860;2023-02-16T05:58:49;102721.88;;;-1.45;100.00
42385;BME280;28042;43.986;22.860;2023-02-16T06:01:14;102716.09;;;-1.36;100.00
42385;BME280;28042;43.986;22.860;2023-02-16T06:03:40;102709.44;;;-1.27;100.00
42385;BME280;28042;43.986;22.860;2023-02-16T06:06:06;102710.88;;;-1.20;100.00
42385;BME280;28042;43.986;22.860;2023-02-16T06:08:31;102719.91;;;-1.23;100.00
42385;BME280;28042;43.986;22.860;2023-02-16T06:10:57;102715.94;;;-1.14;100.00
42385;BME280;28042;43.986;22.860;2023-02-16T06:13:23;102720.84;;;-1.05;100.00
42385;BME280;28042;43.986;22.860;2023-02-16T06:15:52;102724.28;;;-1.01;100.00
42385;BME280;28042;43.986;22.860;2023-02-16T06:18:17;102726.13;;;-0.84;100.00
42385;BME280;28042;43.986;22.860;2023-02-16T06:20:43;102723.78;;;-0.73;100.00
42385;BME280;28042;43.986;22.860;2023-02-16T06:23:09;102723.19;;;-0.61;100.00
42385;BME280;28042;43.986;22.860;2023-02-16T06:25:35;102725.28;;;-0.49;100.00
42385;BME280;28042;43.986;22.860;2023-02-16T06:28:00;102722.91;;;-0.38;100.00
42385;BME280;28042;43.986;22.860;2023-02-16T06:30:26;102726.25;;;-0.33;100.00
42385;BME280;28042;43.986;22.860;2023-02-16T06:32:51;102729.22;;;-0.21;100.00
42385;BME280;28042;43.986;22.860;2023-02-16T06:35:16;102734.22;;;-0.14;100.00
42385;BME280;28042;43.986;22.860;2023-02-16T06:37:42;102739.03;;;-0.03;100.00
42385;BME280;28042;43.986;22.860;2023-02-16T06:40:07;102731.75;;;0.16;100.00
42385;BME280;28042;43.986;22.860;2023-02-16T06:42:38;102741.22;;;0.23;100.00
42385;BME280;28042;43.986;22.860;2023-02-16T06:45:04;102735.06;;;0.21;100.00
42385;BME280;28042;43.986;22.860;2023-02-16T06:47:29;102731.88;;;0.31;100.00
42385;BME280;28042;43.986;22.860;2023-02-16T06:49:55;102736.88;;;0.21;100.00
42385;BME280;28042;43.986;22.860;2023-02-16T06:52:20;102745.84;;;0.37;100.00
42385;BME280;28042;43.986;22.860;2023-02-16T06:54:45;102740.47;;;0.54;100.00
42385;BME280;28042;43.986;22.860;2023-02-16T06:57:11;102729.72;;;0.54;100.00
42385;BME280;28042;43.986;22.860;2023-02-16T06:59:36;102736.09;;;0.52;100.00
42385;BME280;28042;43.986;22.860;2023-02-16T07:02:01;102724.97;;;0.75;100.00
42385;BME280;28042;43.986;22.860;2023-02-16T07:04:27;102723.00;;;0.95;100.00
42385;BME280;28042;43.986;22.860;2023-02-16T07:06:52;102736.53;;;1.09;100.00
42385;BME280;28042;43.986;22.860;2023-02-16T07:09:17;102726.84;;;1.22;100.00
42385;BME280;28042;43.986;22.860;2023-02-16T07:11:43;102726.47;;;1.44;100.00
42385;BME280;28042;43.986;22.860;2023-02-16T07:14:08;102711.63;;;1.53;100.00
42385;BME280;28042;43.986;22.860;2023-02-16T07:16:33;102716.97;;;1.68;100.00
42385;BME280;28042;43.986;22.860;2023-02-16T07:18:59;102718.28;;;1.61;100.00
42385;BME280;28042;43.986;22.860;2023-02-16T07:21:24;102715.03;;;1.70;100.00
42385;BME280;28042;43.986;22.860;2023-02-16T07:23:49;102714.59;;;1.78;100.00
42385;BME280;28042;43.986;22.860;2023-02-16T07:26:15;102710.03;;;1.94;100.00
42385;BME280;28042;43.986;22.860;2023-02-16T07:28:40;102711.19;;;2.05;100.00
42385;BME280;28042;43.986;22.860;2023-02-16T07:31:06;102717.75;;;2.15;100.00
42385;BME280;28042;43.986;22.860;2023-02-16T07:33:32;102705.38;;;2.41;100.00
42385;BME280;28042;43.986;22.860;2023-02-16T07:35:58;102700.09;;;2.53;100.00
42385;BME280;28042;43.986;22.860;2023-02-16T07:38:23;102699.91;;;2.57;100.00
42385;BME280;28042;43.986;22.860;2023-02-16T07:40:49;102696.13;;;2.59;100.00
42385;BME280;28042;43.986;22.860;2023-02-16T07:43:14;102703.94;;;2.64;100.00
42385;BME280;28042;43.986;22.860;2023-02-16T07:45:39;102693.44;;;2.73;100.00
42385;BME280;28042;43.986;22.860;2023-02-16T07:48:06;102699.09;;;2.83;100.00
42385;BME280;28042;43.986;22.860;2023-02-16T07:50:31;102697.06;;;2.87;100.00
42385;BME280;28042;43.986;22.860;2023-02-16T07:52:57;102699.28;;;2.94;99.50
42385;BME280;28042;43.986;22.860;2023-02-16T07:55:24;102696.09;;;3.02;99.95
42385;BME280;28042;43.986;22.860;2023-02-16T07:57:50;102695.84;;;3.19;99.39
42385;BME280;28042;43.986;22.860;2023-02-16T08:00:19;102693.50;;;3.27;97.48
42385;BME280;28042;43.986;22.860;2023-02-16T08:02:44;102691.06;;;3.37;97.50
42385;BME280;28042;43.986;22.860;2023-02-16T08:05:10;102693.38;;;3.43;97.06
42385;BME280;28042;43.986;22.860;2023-02-16T08:07:35;102692.00;;;3.50;97.04
42385;BME280;28042;43.986;22.860;2023-02-16T08:10:00;102691.94;;;3.37;97.88
42385;BME280;28042;43.986;22.860;2023-02-16T08:12:26;102689.44;;;3.34;99.01
42385;BME280;28042;43.986;22.860;2023-02-16T08:14:52;102692.13;;;3.61;99.08
42385;BME280;28042;43.986;22.860;2023-02-16T08:17:17;102687.44;;;3.78;97.06
42385;BME280;28042;43.986;22.860;2023-02-16T08:19:42;102686.78;;;3.74;96.80
42385;BME280;28042;43.986;22.860;2023-02-16T08:22:08;102693.06;;;3.87;97.15
42385;BME280;28042;43.986;22.860;2023-02-16T08:24:33;102688.09;;;4.07;96.97
42385;BME280;28042;43.986;22.860;2023-02-16T08:26:59;102690.28;;;4.27;95.39
42385;BME280;28042;43.986;22.860;2023-02-16T08:29:24;102692.75;;;4.43;93.74
42385;BME280;28042;43.986;22.860;2023-02-16T08:31:50;102699.69;;;4.21;93.27
42385;BME280;28042;43.986;22.860;2023-02-16T08:34:16;102688.78;;;4.36;93.89
42385;BME280;28042;43.986;22.860;2023-02-16T08:36:43;102692.31;;;4.49;93.43
42385;BME280;28042;43.986;22.860;2023-02-16T08:39:13;102697.41;;;4.41;93.60
42385;BME280;28042;43.986;22.860;2023-02-16T08:41:39;102694.38;;;4.58;93.08
42385;BME280;28042;43.986;22.860;2023-02-16T08:44:04;102693.50;;;4.70;91.76
42385;BME280;28042;43.986;22.860;2023-02-16T08:46:30;102688.25;;;4.93;90.91
42385;BME280;28042;43.986;22.860;2023-02-16T08:48:56;102698.41;;;5.02;90.69
42385;BME280;28042;43.986;22.860;2023-02-16T08:51:23;102695.69;;;5.02;90.85
42385;BME280;28042;43.986;22.860;2023-02-16T08:53:49;102694.16;;;5.10;89.74
42385;BME280;28042;43.986;22.860;2023-02-16T08:56:16;102697.13;;;4.95;90.04
42385;BME280;28042;43.986;22.860;2023-02-16T09:01:44;102682.56;;;5.21;89.75
42385;BME280;28042;43.986;22.860;2023-02-16T09:04:10;102690.50;;;5.35;88.84
42385;BME280;28042;43.986;22.860;2023-02-16T09:06:36;102686.09;;;5.46;87.39
42385;BME280;28042;43.986;22.860;2023-02-16T09:09:02;102686.22;;;5.68;86.51
42385;BME280;28042;43.986;22.860;2023-02-16T09:11:29;102688.50;;;5.85;85.94
42385;BME280;28042;43.986;22.860;2023-02-16T09:13:54;102692.19;;;5.84;84.55
42385;BME280;28042;43.986;22.860;2023-02-16T09:16:20;102686.72;;;5.97;83.92
42385;BME280;28042;43.986;22.860;2023-02-16T09:18:46;102684.63;;;5.65;84.83
42385;BME280;28042;43.986;22.860;2023-02-16T09:21:16;102683.34;;;5.82;85.36
42385;BME280;28042;43.986;22.860;2023-02-16T09:23:42;102686.53;;;5.87;84.77
42385;BME280;28042;43.986;22.860;2023-02-16T09:26:09;102682.84;;;5.88;84.92
42385;BME280;28042;43.986;22.860;2023-02-16T09:28:36;102683.50;;;5.92;84.70
42385;BME280;28042;43.986;22.860;2023-02-16T09:31:12;102685.72;;;5.98;83.95
42385;BME280;28042;43.986;22.860;2023-02-16T09:33:38;102686.84;;;6.07;83.56
42385;BME280;28042;43.986;22.860;2023-02-16T09:36:07;102680.97;;;6.13;83.27
42385;BME280;28042;43.986;22.860;2023-02-16T09:38:33;102686.44;;;6.35;82.84
42385;BME280;28042;43.986;22.860;2023-02-16T09:41:04;102685.91;;;6.19;82.61
42385;BME280;28042;43.986;22.860;2023-02-16T09:45:57;102672.84;;;6.24;83.30
42385;BME280;28042;43.986;22.860;2023-02-16T09:48:27;102669.19;;;6.47;82.31
42385;BME280;28042;43.986;22.860;2023-02-16T09:50:55;102667.94;;;6.40;81.64
42385;BME280;28042;43.986;22.860;2023-02-16T09:53:23;102659.31;;;6.35;82.11
42385;BME280;28042;43.986;22.860;2023-02-16T09:56:03;102655.38;;;6.50;81.77
42385;BME280;28042;43.986;22.860;2023-02-16T09:58:47;102658.34;;;6.47;81.78
42385;BME280;28042;43.986;22.860;2023-02-16T10:08:36;102645.47;;;6.94;79.36
42385;BME280;28042;43.986;22.860;2023-02-16T10:13:36;102648.50;;;7.12;78.81
42385;BME280;28042;43.986;22.860;2023-02-16T10:16:05;102646.09;;;7.41;77.50
42385;BME280;28042;43.986;22.860;2023-02-16T10:18:39;102638.28;;;7.48;76.36
42385;BME280;28042;43.986;22.860;2023-02-16T10:21:08;102639.72;;;7.31;76.71
42385;BME280;28042;43.986;22.860;2023-02-16T10:23:43;102630.38;;;7.56;75.18
42385;BME280;28042;43.986;22.860;2023-02-16T10:28:46;102621.00;;;7.70;74.51
42385;BME280;28042;43.986;22.860;2023-02-16T10:31:12;102618.56;;;7.67;74.62
42385;BME280;28042;43.986;22.860;2023-02-16T10:33:44;102618.28;;;7.70;74.13
42385;BME280;28042;43.986;22.860;2023-02-16T10:41:36;102615.63;;;8.21;71.93
42385;BME280;28042;43.986;22.860;2023-02-16T10:44:21;102601.31;;;8.19;70.60
42385;BME280;28042;43.986;22.860;2023-02-16T10:46:51;102599.78;;;8.26;70.59
42385;BME280;28042;43.986;22.860;2023-02-16T10:49:19;102600.28;;;8.41;69.54
42385;BME280;28042;43.986;22.860;2023-02-16T10:51:46;102585.84;;;8.50;70.56
42385;BME280;28042;43.986;22.860;2023-02-16T10:54:27;102592.94;;;8.62;70.73
42385;BME280;28042;43.986;22.860;2023-02-16T10:56:56;102586.09;;;8.77;70.36
42385;BME280;28042;43.986;22.860;2023-02-16T11:01:56;102579.28;;;8.22;70.98
42385;BME280;28042;43.986;22.860;2023-02-16T11:07:04;102572.53;;;8.47;70.29
42385;BME280;28042;43.986;22.860;2023-02-16T11:09:30;102566.88;;;8.69;69.74
42385;BME280;28042;43.986;22.860;2023-02-16T11:11:56;102566.06;;;8.78;68.71
42385;BME280;28042;43.986;22.860;2023-02-16T11:14:26;102566.06;;;8.78;68.64
42385;BME280;28042;43.986;22.860;2023-02-16T11:17:07;102551.66;;;8.57;68.41
42385;BME280;28042;43.986;22.860;2023-02-16T11:19:35;102562.19;;;8.41;69.03
42385;BME280;28042;43.986;22.860;2023-02-16T11:22:02;102558.22;;;8.45;70.34
42385;BME280;28042;43.986;22.860;2023-02-16T11:24:31;102549.09;;;8.65;69.26
42385;BME280;28042;43.986;22.860;2023-02-16T11:29:37;102534.28;;;9.08;66.12
42385;BME280;28042;43.986;22.860;2023-02-16T11:32:07;102531.41;;;9.19;65.33
42385;BME280;28042;43.986;22.860;2023-02-16T11:34:49;102525.38;;;9.25;65.97
42385;BME280;28042;43.986;22.860;2023-02-16T11:37:27;102532.69;;;9.25;66.03
42385;BME280;28042;43.986;22.860;2023-02-16T11:42:38;102519.59;;;9.67;64.54
42385;BME280;28042;43.986;22.860;2023-02-16T11:45:05;102513.38;;;9.84;62.74
42385;BME280;28042;43.986;22.860;2023-02-16T11:47:39;102506.59;;;9.88;62.16
42385;BME280;28042;43.986;22.860;2023-02-16T11:52:37;102502.50;;;10.12;60.55
42385;BME280;28042;43.986;22.860;2023-02-16T11:55:03;102498.75;;;10.13;60.19
42385;BME280;28042;43.986;22.860;2023-02-16T11:57:30;102496.00;;;9.85;60.68
42385;BME280;28042;43.986;22.860;2023-02-16T11:59:56;102489.75;;;9.66;60.98
42385;BME280;28042;43.986;22.860;2023-02-16T12:26:00;102446.84;;;10.32;56.98
42385;BME280;28042;43.986;22.860;2023-02-16T12:34:07;102434.94;;;10.33;56.51
42385;BME280;28042;43.986;22.860;2023-02-16T12:39:15;102436.28;;;10.65;55.42
42385;BME280;28042;43.986;22.860;2023-02-16T12:44:17;102428.03;;;10.57;56.00
42385;BME280;28042;43.986;22.860;2023-02-16T12:46:44;102413.53;;;10.56;55.65
42385;BME280;28042;43.986;22.860;2023-02-16T12:49:23;102418.13;;;10.56;55.35
42385;BME280;28042;43.986;22.860;2023-02-16T12:52:02;102413.75;;;10.63;55.54
42385;BME280;28042;43.986;22.860;2023-02-16T12:57:11;102397.25;;;11.08;54.91
42385;BME280;28042;43.986;22.860;2023-02-16T13:02:03;102392.56;;;11.00;55.42
42385;BME280;28042;43.986;22.860;2023-02-16T13:04:39;102401.50;;;10.85;56.01
42385;BME280;28042;43.986;22.860;2023-02-16T13:12:09;102388.34;;;10.80;55.84
42385;BME280;28042;43.986;22.860;2023-02-16T13:14:41;102386.41;;;10.55;56.39
42385;BME280;28042;43.986;22.860;2023-02-16T13:17:09;102380.41;;;10.69;56.61
42385;BME280;28042;43.986;22.860;2023-02-16T13:19:35;102380.00;;;10.64;57.11
42385;BME280;28042;43.986;22.860;2023-02-16T13:24:44;102372.38;;;10.93;55.83
42385;BME280;28042;43.986;22.860;2023-02-16T13:27:16;102371.00;;;10.89;55.15
42385;BME280;28042;43.986;22.860;2023-02-16T13:32:32;102362.88;;;10.97;54.25
42385;BME280;28042;43.986;22.860;2023-02-16T13:37:52;102362.16;;;10.52;57.22
42385;BME280;28042;43.986;22.860;2023-02-16T13:43:00;102350.94;;;10.55;57.36
42385;BME280;28042;43.986;22.860;2023-02-16T13:45:29;102352.31;;;10.59;57.35
42385;BME280;28042;43.986;22.860;2023-02-16T13:47:55;102347.22;;;10.82;57.40
42385;BME280;28042;43.986;22.860;2023-02-16T13:52:46;102347.75;;;10.85;56.82
42385;BME280;28042;43.986;22.860;2023-02-16T13:55:24;102344.03;;;10.86;57.76
42385;BME280;28042;43.986;22.860;2023-02-16T13:57:55;102345.00;;;10.85;56.89
42385;BME280;28042;43.986;22.860;2023-02-16T14:05:22;102339.44;;;11.13;56.69
42385;BME280;28042;43.986;22.860;2023-02-16T14:07:49;102346.94;;;11.19;56.40
42385;BME280;28042;43.986;22.860;2023-02-16T14:13:33;102341.03;;;11.23;56.18
42385;BME280;28042;43.986;22.860;2023-02-16T14:16:10;102330.56;;;11.19;56.52
42385;BME280;28042;43.986;22.860;2023-02-16T14:18:41;102331.22;;;11.13;56.74
42385;BME280;28042;43.986;22.860;2023-02-16T14:23:42;102325.16;;;10.75;58.04
42385;BME280;28042;43.986;22.860;2023-02-16T14:26:07;102322.28;;;10.59;58.58
42385;BME280;28042;43.986;22.860;2023-02-16T14:31:03;102313.34;;;10.48;59.25
42385;BME280;28042;43.986;22.860;2023-02-16T14:40:53;102310.69;;;10.03;60.47
42385;BME280;28042;43.986;22.860;2023-02-16T15:01:26;102290.94;;;9.74;62.98
42385;BME280;28042;43.986;22.860;2023-02-16T15:03:52;102284.84;;;9.62;63.12
42385;BME280;28042;43.986;22.860;2023-02-16T15:06:20;102289.34;;;9.53;63.30
42385;BME280;28042;43.986;22.860;2023-02-16T15:08:51;102283.94;;;9.44;63.66
42385;BME280;28042;43.986;22.860;2023-02-16T15:11:47;102276.53;;;9.36;63.93
42385;BME280;28042;43.986;22.860;2023-02-16T15:14:25;102282.28;;;9.33;64.51
42385;BME280;28042;43.986;22.860;2023-02-16T15:16:51;102280.00;;;9.28;64.50
42385;BME280;28042;43.986;22.860;2023-02-16T15:19:19;102275.75;;;9.16;65.07
42385;BME280;28042;43.986;22.860;2023-02-16T15:21:47;102271.91;;;9.09;65.28
42385;BME280;28042;43.986;22.860;2023-02-16T15:24:30;102271.81;;;9.01;66.32
42385;BME280;28042;43.986;22.860;2023-02-16T15:26:58;102272.31;;;8.87;66.36
42385;BME280;28042;43.986;22.860;2023-02-16T15:29:26;102273.63;;;8.73;67.84
42385;BME280;28042;43.986;22.860;2023-02-16T15:31:51;102269.63;;;8.67;68.21
42385;BME280;28042;43.986;22.860;2023-02-16T15:34:27;102274.66;;;8.62;68.71
42385;BME280;28042;43.986;22.860;2023-02-16T15:36:54;102270.25;;;8.52;69.14
42385;BME280;28042;43.986;22.860;2023-02-16T15:39:32;102274.25;;;8.38;70.14